Nearby METAR Reports

 

KSJC - San Jose, California, USA
Distance from station: NE 14km
Updated: 04/03/2024 22:53
Partly cloudy
Partly cloudy
 Wind from SW
Wind: SW 6 km/h
Temperature: 13°C
Dew Point: 7°C
Humidity: 67%
Barometer: 1019.6 hPa
Clouds: Partly cloudy
Visibility: 16 km
Cloud details: Few Clouds 1311 m
Partly cloudy 1676 m
2024/03/05 02:53 KSJC 050253Z 22003KT 10SM FEW043 SCT055 13/07 A3011 RMK AO2 SLP194 T01280067 56001
KNUQ - Moffett Nas/Mtn, California, USA
Distance from station: N 14km
Updated: 04/03/2024 23:35
Clear
Clear
 Wind from calm
Wind: Calm
Temperature: 11°C
Dew Point: 6°C
Humidity: 72%
Barometer: 1019.6 hPa
Clouds: Clear
Visibility: 16 km
2024/03/05 03:35 KNUQ 050335Z AUTO 00000KT 10SM CLR 11/06 A3011 RMK AO2
 
KPAO - Palo Alto, California, USA
Distance from station: NNW 23km
Updated: 04/03/2024 22:47
Mostly cloudy
Mostly cloudy
 Wind from varies
Wind: varies 7 km/h
Temperature: 12°C
Dew Point: 6°C
Humidity: 67%
Barometer: 1019.6 hPa
Clouds: Mostly cloudy
Visibility: 16 km
Cloud details: Partly cloudy 1829 m
Mostly cloudy 6096 m
2024/03/05 02:47 KPAO 050247Z VRB04KT 10SM SCT060 BKN200 12/06 A3011
KRHV - San Jose/Reid, California, USA
Distance from station: ENE 19km
Updated: 04/03/2024 23:47
Partly cloudy
Partly cloudy
 Wind from varies
Wind: varies 11 km/h
Temperature: 12°C
Dew Point: 6°C
Humidity: 67%
Barometer: 1019.6 hPa
Clouds: Partly cloudy
Visibility: 16 km
Cloud details: Partly cloudy 1676 m
2024/03/05 03:47 KRHV 050347Z VRB06KT 10SM SCT055 12/06 A3011
 
KOAK - Oakland, California, USA
Distance from station: NNW 50km
Updated: 04/03/2024 22:53
Mostly cloudy
Mostly cloudy
 Wind from SW
Wind: SW 13 km/h
Temperature: 12°C
Dew Point: 6°C
Humidity: 67%
Barometer: 1019.6 hPa
Clouds: Mostly cloudy
Visibility: 16 km
Cloud details: Few Clouds 732 m
Mostly cloudy 1829 m
Mostly cloudy 6096 m
2024/03/05 02:53 KOAK 050253Z 22007KT 10SM FEW024 BKN060 BKN200 12/06 A3011 RMK AO2 SLP194 T01220061 58005
KSQL - San Carlos Airpo, California, USA
Distance from station: NW 34km
Updated: 04/03/2024 22:55
Mostly cloudy
Mostly cloudy
 Wind from S
Wind: S 7 km/h
Temperature: 13°C
Dew Point: 5°C
Humidity: 59%
Barometer: 1019.6 hPa
Clouds: Mostly cloudy
Visibility: 16 km
Cloud details: Mostly cloudy 1676 m
2024/03/05 02:55 KSQL 050255Z 17004KT 10SM BKN055 13/05 A3011
 
KSFO - San Francisco, California, USA
Distance from station: NW 49km
Updated: 04/03/2024 22:56
Mostly cloudy
Mostly cloudy
 Wind from SW
Wind: SW 11 km/h
Temperature: 12°C
Dew Point: 6°C
Humidity: 67%
Barometer: 1019.3 hPa
Clouds: Mostly cloudy
Visibility: 16 km
Cloud details: Few Clouds 914 m
Mostly cloudy 1676 m
Mostly cloudy 6096 m
2024/03/05 02:56 KSFO 050256Z 22006KT 10SM FEW030 BKN055 BKN200 12/06 A3010 RMK AO2 SLP193 T01170061 58003 $
KE16 - San Martin, California, USA
Distance from station: ESE 43km
Updated: 04/03/2024 23:35
Clear
Clear
 Wind from E
Wind: E 7 km/h
Temperature: 9°C
Wind Chill: 8°C
Dew Point: 8°C
Humidity: 94%
Barometer: 1020.3 hPa
Clouds: Clear
Visibility: 16 km
2024/03/05 03:35 KE16 050335Z AUTO 10004KT 10SM CLR 09/08 A3013 RMK AO2 PWINO PNO
 
KWVI - Watsonville, California, USA
Distance from station: SSE 44km
Updated: 04/03/2024 22:53
Clear
Clear
 Wind from calm
Wind: Calm
Temperature: 10°C
Dew Point: 7°C
Humidity: 82%
Barometer: 1020.7 hPa
Clouds: Clear
Visibility: 16 km
2024/03/05 02:53 KWVI 050253Z AUTO 00000KT 10SM CLR 10/07 A3014 RMK AO2 SLP205 T01000067 53001
KHAF - Half Moon Bay, California, USA
Distance from station: WNW 50km
Updated: 04/03/2024 23:35
Partly cloudy
Partly cloudy
 Wind from S
Wind: S 17 km/h
Temperature: 11°C
Dew Point: 8°C
Humidity: 82%
Barometer: 1020 hPa
Clouds: Partly cloudy
Visibility: 14 km
Cloud details: Partly cloudy 1676 m
Partly cloudy 1981 m
2024/03/05 03:35 KHAF 050335Z AUTO 18009KT 9SM SCT055 SCT065 11/08 A3012 RMK AO2
 
KHWD - Hayward, California, USA
Distance from station: N 44km
Updated: 04/03/2024 22:54
Partly cloudy
Partly cloudy
 Wind from W
Wind: W 7 km/h
Temperature: 13°C
Dew Point: 6°C
Humidity: 63%
Barometer: 1019.6 hPa
Clouds: Partly cloudy
Visibility: 16 km
Cloud details: Partly cloudy 1829 m
2024/03/05 02:54 KHWD 050254Z 27004KT 10SM SCT060 13/06 A3011 RMK AO2 SLP204 T01280061 56003
KLVK - Livermore, California, USA
Distance from station: NNE 51km
Updated: 04/03/2024 22:53
Few Clouds
Few Clouds
 Wind from W
Wind: W 6 km/h
Temperature: 10°C
Dew Point: 5°C
Humidity: 71%
Barometer: 1019.3 hPa
Clouds: Few Clouds
Visibility: 16 km
Cloud details: Few Clouds 1829 m
2024/03/05 02:53 KLVK 050253Z 27003KT 10SM FEW060 10/05 A3010 RMK AO2 SLP190 T01000050 58001